Time;durP1;ratioP1;P1;durP2;ratioP2;P2;SDS_P1;SDS_P2;PMS_P1;PMS_P2;Temp;Humidity;BMP_temperature;BMP_pressure;BME280_temperature;BME280_humidity;BME280_pressure;Samples;Min_cycle;Max_cycle;Signal;HPM_P1;HPM_P2
2022/07/25 00:01:37;;;;;;;;;;;;;;;23.71;46.31;100150.09;5074239;28;19947;-67
2022/07/25 00:04:03;;;;;;;;;;;;;;;23.72;46.29;100146.28;5074169;28;19999;-67
2022/07/25 00:06:28;;;;;;;;;;;;;;;23.72;46.16;100148.22;5073915;28;20419;-67
2022/07/25 00:08:53;;;;;;;;;;;;;;;23.74;46.25;100152.28;5074046;28;19920;-67
2022/07/25 00:11:18;;;;;;;;;;;;;;;23.73;46.38;100161.56;5082669;28;19916;-67
2022/07/25 00:13:44;;;;;;;;;;;;;;;23.72;46.21;100156.41;5093988;28;19926;-66
2022/07/25 00:16:09;;;;;;;;;;;;;;;23.71;45.92;100163.75;5094307;28;19916;-66
2022/07/25 00:18:34;;;;;;;;;;;;;;;23.71;45.80;100161.00;5094263;28;20251;-66
2022/07/25 00:21:00;;;;;;;;;;;;;;;23.71;45.61;100158.28;5094827;28;20269;-66
2022/07/25 00:23:25;;;;;;;;;;;;;;;23.71;45.22;100149.28;5093916;28;20277;-66
2022/07/25 00:25:50;;;;;;;;;;;;;;;23.72;45.38;100153.66;5093627;28;19924;-66
2022/07/25 00:28:15;;;;;;;;;;;;;;;23.70;45.39;100156.66;5093876;28;19916;-66
2022/07/25 00:30:41;;;;;;;;;;;;;;;23.72;45.41;100162.66;5093523;28;20292;-67
2022/07/25 00:33:06;;;;;;;;;;;;;;;23.70;45.05;100162.13;5093825;28;20009;-67
2022/07/25 00:35:31;;;;;;;;;;;;;;;23.70;44.77;100156.66;5092500;28;20398;-66
2022/07/25 00:37:57;;;;;;;;;;;;;;;23.70;45.26;100162.13;5096149;28;19923;-67
2022/07/25 00:40:22;;;;;;;;;;;;;;;23.71;44.78;100160.22;5097963;28;19923;-66
2022/07/25 00:42:47;;;;;;;;;;;;;;;23.71;45.19;100157.47;5098029;28;20392;-66
2022/07/25 00:45:12;;;;;;;;;;;;;;;23.70;44.60;100162.13;5097953;28;20324;-66
2022/07/25 00:47:38;;;;;;;;;;;;;;;23.71;44.94;100152.84;5097883;28;20270;-66
2022/07/25 00:50:03;;;;;;;;;;;;;;;23.72;45.07;100159.13;5097992;28;19916;-67
2022/07/25 00:52:29;;;;;;;;;;;;;;;23.71;45.06;100152.84;5098027;28;19920;-67
2022/07/25 00:54:55;;;;;;;;;;;;;;;23.70;44.76;100155.84;5097473;28;19920;-67
2022/07/25 00:57:21;;;;;;;;;;;;;;;23.72;44.73;100165.38;5097378;28;19962;-67
2022/07/25 00:59:46;;;;;;;;;;;;;;;23.70;44.81;100156.66;5097657;28;19916;-67
2022/07/25 01:02:11;;;;;;;;;;;;;;;23.71;44.62;100158.28;5097579;28;19969;-66
2022/07/25 01:04:36;;;;;;;;;;;;;;;23.70;44.46;100153.94;5097566;28;20289;-66
2022/07/25 01:07:02;;;;;;;;;;;;;;;23.70;44.33;100140.31;5097493;28;19916;-66
2022/07/25 01:09:27;;;;;;;;;;;;;;;23.69;44.53;100141.38;5097400;28;19916;-66
2022/07/25 01:11:52;;;;;;;;;;;;;;;23.71;44.32;100152.03;5084906;28;20337;-67
2022/07/25 01:14:17;;;;;;;;;;;;;;;23.71;44.66;100152.03;5077117;28;20304;-67
2022/07/25 01:16:43;;;;;;;;;;;;;;;23.70;44.08;100145.75;5076761;28;19917;-67
2022/07/25 01:19:45;;;;;;;;;;;;;;;23.67;44.20;100159.97;5076653;28;19917;-66
2022/07/25 01:22:10;;;;;;;;;;;;;;;23.69;44.32;100141.38;5076647;28;20062;-66
2022/07/25 01:24:35;;;;;;;;;;;;;;;23.68;44.16;100141.66;5076577;28;19971;-66
2022/07/25 01:27:01;;;;;;;;;;;;;;;23.68;44.02;100139.78;5075213;28;19917;-66
2022/07/25 01:29:26;;;;;;;;;;;;;;;23.68;43.57;100139.78;5076458;28;19924;-67
2022/07/25 01:31:52;;;;;;;;;;;;;;;23.69;44.43;100144.13;5076700;28;19917;-67
2022/07/25 01:34:17;;;;;;;;;;;;;;;23.69;44.18;100146.84;5076362;28;19918;-67
2022/07/25 01:36:42;;;;;;;;;;;;;;;23.68;43.95;100147.97;5076606;28;19917;-67
2022/07/25 01:39:07;;;;;;;;;;;;;;;23.61;43.07;100152.88;5076316;28;20382;-67
2022/07/25 01:41:33;;;;;;;;;;;;;;;23.67;43.67;100161.88;5076216;28;19927;-67
2022/07/25 01:43:58;;;;;;;;;;;;;;;23.67;43.72;100159.97;5076514;28;19916;-67
2022/07/25 01:46:23;;;;;;;;;;;;;;;23.68;43.37;100153.41;5076172;28;19948;-67
2022/07/25 01:48:48;;;;;;;;;;;;;;;23.66;43.21;100152.84;5074643;28;19917;-67
2022/07/25 01:51:14;;;;;;;;;;;;;;;23.67;43.50;100161.88;5076071;28;19920;-67
2022/07/25 01:53:39;;;;;;;;;;;;;;;23.67;43.36;100162.69;5076358;28;19917;-67
2022/07/25 01:56:04;;;;;;;;;;;;;;;23.67;43.11;100159.97;5076251;28;20387;-66
2022/07/25 01:58:30;;;;;;;;;;;;;;;23.66;43.09;100169.22;5076755;28;19939;-66
2022/07/25 02:00:55;;;;;;;;;;;;;;;23.68;43.11;100167.06;5075935;28;19917;-66
2022/07/25 02:03:29;;;;;;;;;;;;;;;23.65;42.90;100170.34;5076146;28;19916;-67
2022/07/25 02:05:58;;;;;;;;;;;;;;;23.67;42.93;100167.34;5076073;28;19932;-66
2022/07/25 02:08:23;;;;;;;;;;;;;;;23.68;43.11;100169.78;5075755;28;19954;-66
2022/07/25 02:10:49;;;;;;;;;;;;;;;23.68;43.10;100160.75;5078363;28;20005;-66
2022/07/25 02:13:14;;;;;;;;;;;;;;;23.69;43.07;100165.13;5096287;28;19920;-66
2022/07/25 02:15:39;;;;;;;;;;;;;;;23.67;42.74;100168.16;5095832;28;19916;-66
2022/07/25 02:18:04;;;;;;;;;;;;;;;23.68;42.80;100171.69;5096107;28;19923;-66
2022/07/25 02:20:30;;;;;;;;;;;;;;;23.68;42.81;100175.25;5096054;28;20375;-66
2022/07/25 02:22:55;;;;;;;;;;;;;;;23.66;42.78;100158.31;5095961;28;20412;-66
2022/07/25 02:25:20;;;;;;;;;;;;;;;23.68;42.92;100168.94;5095569;28;19930;-66
2022/07/25 02:27:45;;;;;;;;;;;;;;;23.67;42.57;100167.34;5096217;28;19916;-66
2022/07/25 02:30:11;;;;;;;;;;;;;;;23.67;42.40;100168.16;5095822;28;20334;-66
2022/07/25 02:32:36;;;;;;;;;;;;;;;23.67;42.34;100165.41;5095551;28;19923;-66
2022/07/25 02:35:01;;;;;;;;;;;;;;;23.66;42.29;100176.59;5095559;28;19969;-66
2022/07/25 02:37:27;;;;;;;;;;;;;;;23.66;42.32;100166.50;5095769;28;20002;-66
2022/07/25 02:39:52;;;;;;;;;;;;;;;23.65;42.41;100173.06;5095702;28;19924;-66
2022/07/25 02:42:17;;;;;;;;;;;;;;;23.66;42.64;100174.69;5095717;28;20323;-66
2022/07/25 02:44:42;;;;;;;;;;;;;;;23.66;42.36;100174.69;5095662;28;19939;-67
2022/07/25 02:47:08;;;;;;;;;;;;;;;23.65;42.36;100164.88;5095300;28;19959;-67
2022/07/25 02:49:33;;;;;;;;;;;;;;;23.66;42.32;100171.94;5095492;28;19923;-67
2022/07/25 02:51:58;;;;;;;;;;;;;;;23.67;42.14;100168.16;5095497;28;19948;-67
2022/07/25 02:54:24;;;;;;;;;;;;;;;23.67;42.18;100167.34;5095981;28;20386;-67
2022/07/25 02:56:49;;;;;;;;;;;;;;;23.65;42.06;100170.34;5095069;28;19916;-67
2022/07/25 02:59:14;;;;;;;;;;;;;;;23.65;41.85;100170.34;5094623;28;19923;-67
2022/07/25 03:01:39;;;;;;;;;;;;;;;23.66;41.68;100169.22;5095130;28;20293;-66
2022/07/25 03:04:05;;;;;;;;;;;;;;;23.69;41.86;100165.13;5094862;28;20011;-66
2022/07/25 03:06:30;;;;;;;;;;;;;;;23.71;41.50;100162.94;5095150;28;19916;-66
2022/07/25 03:08:55;;;;;;;;;;;;;;;23.73;41.71;100168.91;5094966;28;20320;-66
2022/07/25 03:11:20;;;;;;;;;;;;;;;23.72;42.34;100170.84;5088484;28;20411;-66
2022/07/25 03:13:46;;;;;;;;;;;;;;;23.73;41.98;100163.47;5074506;28;19924;-66
2022/07/25 03:16:11;;;;;;;;;;;;;;;23.77;42.37;100164.56;5074620;28;19917;-66
2022/07/25 03:18:36;;;;;;;;;;;;;;;23.77;42.51;100165.38;5074557;28;20301;-66
2022/07/25 03:21:01;;;;;;;;;;;;;;;23.70;42.29;100164.84;5074269;28;19916;-66
2022/07/25 03:23:27;;;;;;;;;;;;;;;23.74;42.01;100163.19;5074118;28;20007;-66
2022/07/25 03:25:52;;;;;;;;;;;;;;;23.76;42.09;100166.44;5074068;28;19921;-66
2022/07/25 03:28:17;;;;;;;;;;;;;;;23.81;41.93;100174.63;5074545;28;20007;-66
2022/07/25 03:30:43;;;;;;;;;;;;;;;23.80;42.14;100172.16;5074287;28;19978;-66
2022/07/25 03:33:08;;;;;;;;;;;;;;;23.80;42.06;100167.53;5074336;28;19923;-66
2022/07/25 03:35:35;;;;;;;;;;;;;;;23.80;42.06;100162.06;5074355;28;19917;-66
2022/07/25 03:38:01;;;;;;;;;;;;;;;23.76;42.04;100173.81;5073994;28;19917;-66
2022/07/25 03:40:27;;;;;;;;;;;;;;;23.80;42.48;100159.34;5074277;28;19917;-66
2022/07/25 03:42:52;;;;;;;;;;;;;;;23.86;42.52;100160.16;5074180;28;20390;-66
2022/07/25 03:45:17;;;;;;;;;;;;;;;23.91;42.32;100162.84;5074210;28;20243;-66
2022/07/25 03:47:42;;;;;;;;;;;;;;;23.91;42.34;100162.06;5073846;28;19921;-66
2022/07/25 03:50:08;;;;;;;;;;;;;;;23.90;42.35;100165.88;5074052;28;19990;-66
2022/07/25 03:52:34;;;;;;;;;;;;;;;23.92;42.75;100169.13;5073760;28;20011;-66
2022/07/25 03:54:59;;;;;;;;;;;;;;;23.84;42.67;100176.00;5074018;28;19917;-66
2022/07/25 03:57:24;;;;;;;;;;;;;;;23.82;42.95;100178.19;5074071;28;20405;-66
2022/07/25 03:59:50;;;;;;;;;;;;;;;23.79;43.31;100181.47;5074054;28;20333;-66
2022/07/25 04:02:15;;;;;;;;;;;;;;;23.88;43.01;100171.59;5072470;28;19921;-67
2022/07/25 04:04:40;;;;;;;;;;;;;;;23.84;43.23;100184.19;5073572;28;19956;-67
2022/07/25 04:07:06;;;;;;;;;;;;;;;23.89;43.38;100191.53;5073644;28;19920;-67
2022/07/25 04:09:31;;;;;;;;;;;;;;;23.84;43.31;100180.66;5073643;28;19923;-67
2022/07/25 04:11:56;;;;;;;;;;;;;;;23.86;43.48;100181.19;5084476;28;19920;-67
2022/07/25 04:14:22;;;;;;;;;;;;;;;23.89;43.47;100173.25;5094025;28;19924;-67
2022/07/25 04:16:47;;;;;;;;;;;;;;;23.90;43.66;100176.78;5093969;28;19916;-67
2022/07/25 04:19:12;;;;;;;;;;;;;;;23.80;43.75;100178.44;5093906;28;20375;-67
2022/07/25 04:21:37;;;;;;;;;;;;;;;23.84;43.87;100172.47;5093939;28;19995;-67
2022/07/25 04:24:03;;;;;;;;;;;;;;;23.80;44.22;100174.88;5093765;28;19924;-67
2022/07/25 04:26:28;;;;;;;;;;;;;;;23.83;44.04;100173.56;5092439;28;19956;-67
2022/07/25 04:28:55;;;;;;;;;;;;;;;23.84;44.31;100180.66;5094040;28;19916;-67
2022/07/25 04:31:21;;;;;;;;;;;;;;;23.84;44.11;100176.00;5093862;28;20309;-67
2022/07/25 04:33:46;;;;;;;;;;;;;;;23.87;44.30;100171.88;5093892;28;19999;-67
2022/07/25 04:36:11;;;;;;;;;;;;;;;23.83;44.32;100182.53;5093894;28;19923;-67
2022/07/25 04:38:36;;;;;;;;;;;;;;;23.81;44.53;100185.56;5093729;28;19916;-67
2022/07/25 04:41:02;;;;;;;;;;;;;;;23.85;44.72;100183.06;5092339;28;19921;-67
2022/07/25 04:43:27;;;;;;;;;;;;;;;23.82;44.71;100180.94;5093680;28;19961;-67
2022/07/25 04:45:52;;;;;;;;;;;;;;;23.89;44.58;100175.16;5093349;28;20023;-67
2022/07/25 04:48:18;;;;;;;;;;;;;;;23.91;44.65;100175.69;5093308;28;19973;-67
2022/07/25 04:50:44;;;;;;;;;;;;;;;23.94;44.68;100177.84;5093596;28;19916;-67
2022/07/25 04:53:09;;;;;;;;;;;;;;;23.94;44.83;100177.84;5093510;28;20372;-67
2022/07/25 04:55:35;;;;;;;;;;;;;;;23.91;44.80;100178.44;5093328;28;19920;-67
2022/07/25 04:58:00;;;;;;;;;;;;;;;23.91;44.78;100175.69;5093218;28;19916;-67
2022/07/25 05:00:25;;;;;;;;;;;;;;;23.91;45.13;100171.03;5093474;28;19916;-67
2022/07/25 05:02:50;;;;;;;;;;;;;;;23.99;45.00;100183.25;5093347;28;19978;-67
2022/07/25 05:05:16;;;;;;;;;;;;;;;24.08;45.04;100181.59;5093064;28;19916;-67
2022/07/25 05:07:41;;;;;;;;;;;;;;;24.00;45.22;100184.91;5093043;28;19916;-67
2022/07/25 05:10:07;;;;;;;;;;;;;;;23.98;45.27;100178.91;5093391;28;20393;-67
2022/07/25 05:12:32;;;;;;;;;;;;;;;24.10;45.19;100186.78;5078257;28;19917;-66
2022/07/25 05:14:57;;;;;;;;;;;;;;;24.13;45.32;100184.28;5072751;28;19962;-66
2022/07/25 05:17:22;;;;;;;;;;;;;;;24.17;45.65;100184.53;5073010;28;20335;-66
2022/07/25 05:19:48;;;;;;;;;;;;;;;24.21;45.69;100184.78;5072707;28;19958;-66
2022/07/25 05:22:13;;;;;;;;;;;;;;;24.23;45.62;100175.19;5073083;28;19917;-66
2022/07/25 05:24:38;;;;;;;;;;;;;;;24.21;45.79;100174.66;5076064;28;19999;-66
2022/07/25 05:27:03;;;;;;;;;;;;;;;24.27;45.75;100183.66;5076755;28;20021;-66
2022/07/25 05:29:29;;;;;;;;;;;;;;;24.25;45.85;100189.41;5076483;28;19968;-66
2022/07/25 05:31:54;;;;;;;;;;;;;;;24.30;45.84;100186.63;5076520;28;19927;-66
2022/07/25 05:34:20;;;;;;;;;;;;;;;24.34;45.62;100175.94;5076219;28;20279;-66
2022/07/25 05:36:45;;;;;;;;;;;;;;;24.35;45.56;100172.09;5074994;28;20003;-66
2022/07/25 05:39:11;;;;;;;;;;;;;;;24.28;45.91;100166.97;5076427;28;19975;-66
2022/07/25 05:41:36;;;;;;;;;;;;;;;24.27;46.07;100159.09;5076363;28;19970;-66
2022/07/25 05:44:01;;;;;;;;;;;;;;;24.28;46.16;100156.03;5076310;28;19939;-66
2022/07/25 05:46:26;;;;;;;;;;;;;;;24.37;46.02;100161.75;5076368;28;20311;-66
2022/07/25 05:48:52;;;;;;;;;;;;;;;24.32;46.19;100159.03;5076306;28;19916;-66
2022/07/25 05:51:17;;;;;;;;;;;;;;;24.34;45.95;100159.56;5076557;28;20382;-66
2022/07/25 05:53:42;;;;;;;;;;;;;;;24.30;46.32;100164.78;5076260;28;19920;-66
2022/07/25 05:56:08;;;;;;;;;;;;;;;24.34;46.30;100160.38;5076100;28;20370;-66
2022/07/25 05:58:35;;;;;;;;;;;;;;;24.40;45.88;100163.06;5076149;28;19977;-67
2022/07/25 06:01:00;;;;;;;;;;;;;;;24.34;46.21;100165.03;5076178;28;19920;-67
2022/07/25 06:03:26;;;;;;;;;;;;;;;24.42;46.05;100171.78;5075965;28;20377;-67
2022/07/25 06:05:51;;;;;;;;;;;;;;;24.37;46.10;100164.47;5075905;28;19917;-67
2022/07/25 06:08:16;;;;;;;;;;;;;;;24.25;46.61;100161.25;5075888;28;19999;-67
2022/07/25 06:10:41;;;;;;;;;;;;;;;24.24;46.54;100159.66;5075428;28;20393;-67
2022/07/25 06:13:07;;;;;;;;;;;;;;;24.28;46.75;100177.88;5094679;28;19920;-66
2022/07/25 06:15:32;;;;;;;;;;;;;;;24.33;46.41;100172.38;5095633;28;20391;-66
2022/07/25 06:17:58;;;;;;;;;;;;;;;24.31;46.54;100160.94;5095724;28;19916;-66
2022/07/25 06:20:23;;;;;;;;;;;;;;;24.31;46.39;100160.94;5095562;28;19916;-66
2022/07/25 06:22:48;;;;;;;;;;;;;;;24.38;46.20;100157.88;5095530;28;19923;-67
2022/07/25 06:25:14;;;;;;;;;;;;;;;24.43;46.05;100157.03;5095620;28;19986;-67
2022/07/25 06:27:39;;;;;;;;;;;;;;;24.47;45.63;100147.97;5096328;28;20377;-67
2022/07/25 06:30:04;;;;;;;;;;;;;;;24.43;45.77;100146.13;5095697;28;19924;-67
2022/07/25 06:32:30;;;;;;;;;;;;;;;24.42;45.91;100139.00;5096469;28;20370;-67
2022/07/25 06:34:55;;;;;;;;;;;;;;;24.48;45.49;100148.81;5095176;28;20436;-67
2022/07/25 06:37:20;;;;;;;;;;;;;;;24.49;45.37;100151.25;5095482;28;19923;-67
2022/07/25 06:39:45;;;;;;;;;;;;;;;24.43;45.46;100141.47;5095165;28;20030;-67
2022/07/25 06:42:11;;;;;;;;;;;;;;;24.50;45.21;100147.41;5095993;28;19920;-68
2022/07/25 06:44:36;;;;;;;;;;;;;;;24.45;45.19;100155.63;5095210;28;19962;-68
2022/07/25 06:47:01;;;;;;;;;;;;;;;24.41;45.04;100157.31;5094928;28;19922;-67
2022/07/25 06:49:26;;;;;;;;;;;;;;;24.46;44.84;100157.28;5095553;28;20036;-67
2022/07/25 06:51:52;;;;;;;;;;;;;;;24.46;44.85;100154.56;5095258;28;20015;-67
2022/07/25 06:54:17;;;;;;;;;;;;;;;24.51;44.68;100154.50;5095200;28;19931;-67
2022/07/25 06:56:43;;;;;;;;;;;;;;;24.45;44.75;100146.63;5095593;28;19951;-68
2022/07/25 06:59:08;;;;;;;;;;;;;;;24.46;44.74;100151.00;5095654;28;19922;-67
2022/07/25 07:01:34;;;;;;;;;;;;;;;24.48;44.90;100144.16;5095251;28;19920;-67
2022/07/25 07:03:59;;;;;;;;;;;;;;;24.41;45.11;100154.59;5095123;28;20370;-67
2022/07/25 07:06:24;;;;;;;;;;;;;;;24.40;45.00;100158.41;5094860;28;20018;-67
2022/07/25 07:08:50;;;;;;;;;;;;;;;24.46;45.06;100162.75;5095176;28;19923;-67
2022/07/25 07:11:15;;;;;;;;;;;;;;;24.43;44.98;100160.56;5091918;28;19935;-67
2022/07/25 07:13:41;;;;;;;;;;;;;;;24.46;45.11;100157.28;5074339;28;19917;-67
2022/07/25 07:16:06;;;;;;;;;;;;;;;24.47;44.93;100156.16;5074738;28;19917;-68
2022/07/25 07:18:31;;;;;;;;;;;;;;;24.54;44.75;100153.97;5074506;28;20007;-67
2022/07/25 07:20:57;;;;;;;;;;;;;;;24.60;44.38;100159.38;5074338;28;19923;-68
2022/07/25 07:23:22;;;;;;;;;;;;;;;24.64;44.47;100146.78;5074230;28;19923;-67
2022/07/25 07:25:47;;;;;;;;;;;;;;;24.59;44.37;100153.09;5073937;28;19924;-67
2022/07/25 07:28:12;;;;;;;;;;;;;;;24.64;44.32;100144.84;5074229;28;20057;-67
2022/07/25 07:30:38;;;;;;;;;;;;;;;24.63;44.40;100147.84;5074327;28;19916;-67
2022/07/25 07:33:05;;;;;;;;;;;;;;;24.57;44.39;100151.75;5073550;28;20463;-67
2022/07/25 07:35:30;;;;;;;;;;;;;;;24.61;44.32;100148.19;5074266;28;20011;-67
2022/07/25 07:37:55;;;;;;;;;;;;;;;24.66;44.18;100145.38;5074176;28;20035;-67
2022/07/25 07:40:21;;;;;;;;;;;;;;;24.63;44.00;100145.13;5073810;28;19916;-67
2022/07/25 07:42:47;;;;;;;;;;;;;;;24.54;44.26;100145.78;5074100;28;19926;-67
2022/07/25 07:45:19;;;;;;;;;;;;;;;24.62;43.94;100143.53;5073998;28;19920;-67
2022/07/25 07:47:46;;;;;;;;;;;;;;;24.59;44.42;100147.63;5073887;28;20108;-68
2022/07/25 07:50:12;;;;;;;;;;;;;;;24.66;44.10;100152.75;5073884;28;20019;-68
2022/07/25 07:52:37;;;;;;;;;;;;;;;24.68;43.85;100159.59;5074011;28;19960;-68
2022/07/25 07:57:46;;;;;;;;;;;;;;;24.64;43.75;100163.97;5074043;28;20404;-68
2022/07/25 08:00:12;;;;;;;;;;;;;;;24.58;43.63;100158.84;5074006;28;19951;-68
2022/07/25 08:02:51;;;;;;;;;;;;;;;24.66;43.49;100160.97;5073800;28;19956;-68
2022/07/25 08:05:27;;;;;;;;;;;;;;;24.73;43.21;100166.91;5072371;28;20378;-68
2022/07/25 08:07:52;;;;;;;;;;;;;;;24.75;42.88;100153.78;5073440;28;19969;-68
2022/07/25 08:10:19;;;;;;;;;;;;;;;24.77;42.76;100162.50;5073719;28;19920;-68
2022/07/25 08:12:44;;;;;;;;;;;;;;;24.79;42.58;100154.81;5087905;28;19917;-68
2022/07/25 08:15:09;;;;;;;;;;;;;;;24.81;42.29;100158.09;5093826;28;19924;-68
2022/07/25 08:17:35;;;;;;;;;;;;;;;24.84;42.29;100151.25;5093848;28;20449;-68
2022/07/25 08:20:05;;;;;;;;;;;;;;;24.79;42.55;100154.03;5093844;28;19924;-68
2022/07/25 08:22:34;;;;;;;;;;;;;;;24.78;42.54;100155.09;5093957;28;19916;-68
2022/07/25 08:24:59;;;;;;;;;;;;;;;24.82;42.26;100151.53;5093689;28;19920;-68
2022/07/25 08:27:25;;;;;;;;;;;;;;;24.73;42.22;100145.03;5093543;28;19924;-68
2022/07/25 08:29:50;;;;;;;;;;;;;;;24.81;42.18;100151.81;5093359;28;19935;-68
2022/07/25 08:32:16;;;;;;;;;;;;;;;24.75;42.36;100161.97;5093831;28;19930;-68
2022/07/25 08:34:41;;;;;;;;;;;;;;;24.73;42.17;100161.44;5093504;28;20335;-68
2022/07/25 08:37:06;;;;;;;;;;;;;;;24.78;41.86;100155.91;5093282;28;19920;-69
2022/07/25 08:39:31;;;;;;;;;;;;;;;24.69;42.27;100150.25;5093696;28;19991;-68
2022/07/25 08:41:57;;;;;;;;;;;;;;;24.70;42.31;100153.84;5092260;28;19920;-68
2022/07/25 08:44:22;;;;;;;;;;;;;;;24.63;42.45;100150.59;5091921;28;19936;-68
2022/07/25 08:46:47;;;;;;;;;;;;;;;24.64;42.35;100149.50;5092126;28;19916;-68
2022/07/25 08:49:12;;;;;;;;;;;;;;;24.74;42.14;100152.13;5093949;28;19923;-68
2022/07/25 08:51:38;;;;;;;;;;;;;;;24.76;41.76;100157.31;5093545;28;19938;-68
2022/07/25 08:54:03;;;;;;;;;;;;;;;24.68;41.92;100166.94;5092053;28;19970;-68
2022/07/25 08:56:28;;;;;;;;;;;;;;;24.77;41.72;100162.50;5093271;28;19923;-68
2022/07/25 08:58:57;;;;;;;;;;;;;;;24.74;41.84;100171.28;5096069;28;19916;-68
2022/07/25 09:01:22;;;;;;;;;;;;;;;24.73;41.80;100166.91;5097617;28;19969;-68
2022/07/25 09:03:48;;;;;;;;;;;;;;;24.77;41.83;100161.66;5097475;28;19988;-68
2022/07/25 09:06:19;;;;;;;;;;;;;;;24.77;41.51;100157.03;5097512;28;19922;-68
2022/07/25 09:08:52;;;;;;;;;;;;;;;24.74;41.55;100154.88;5097357;28;19952;-68
2022/07/25 09:11:33;;;;;;;;;;;;;;;24.79;41.59;100156.75;5095780;28;19920;-68
2022/07/25 09:14:09;;;;;;;;;;;;;;;24.74;41.86;100155.69;5077321;28;19957;-68
2022/07/25 09:16:39;;;;;;;;;;;;;;;24.87;41.45;100156.09;5077559;28;19923;-68
2022/07/25 09:19:05;;;;;;;;;;;;;;;24.76;41.46;100152.66;5077487;28;19917;-68
2022/07/25 09:21:30;;;;;;;;;;;;;;;24.84;40.93;100156.69;5077174;28;19946;-68
2022/07/25 09:23:56;;;;;;;;;;;;;;;24.79;40.78;100154.81;5076551;28;20258;-68
2022/07/25 09:26:21;;;;;;;;;;;;;;;24.80;40.40;100153.72;5075194;28;20371;-68
2022/07/25 09:28:51;;;;;;;;;;;;;;;24.90;40.82;100159.06;5076379;28;19917;-68
2022/07/25 09:31:17;;;;;;;;;;;;;;;24.82;40.97;100161.63;5075149;28;20277;-68
2022/07/25 09:33:46;;;;;;;;;;;;;;;24.74;40.61;100168.53;5076601;28;20390;-68
2022/07/25 09:36:12;;;;;;;;;;;;;;;24.72;40.86;100165.28;5076271;28;19960;-68
2022/07/25 09:38:37;;;;;;;;;;;;;;;24.79;40.77;100163.03;5076154;28;20047;-68
2022/07/25 09:41:02;;;;;;;;;;;;;;;24.77;40.33;100161.66;5076052;28;19931;-68
2022/07/25 09:43:35;;;;;;;;;;;;;;;24.74;40.34;100174.00;5076291;28;19916;-67
2022/07/25 09:46:00;;;;;;;;;;;;;;;24.80;40.34;100172.03;5076548;28;19916;-67
2022/07/25 09:48:26;;;;;;;;;;;;;;;24.83;40.26;100172.25;5076418;28;20285;-67
2022/07/25 09:50:51;;;;;;;;;;;;;;;24.85;39.97;100174.72;5076402;28;19931;-67
2022/07/25 09:53:16;;;;;;;;;;;;;;;24.78;40.00;100175.03;5074788;28;19970;-67
2022/07/25 09:55:41;;;;;;;;;;;;;;;24.86;39.91;100171.69;5074942;28;19922;-67
2022/07/25 09:58:07;;;;;;;;;;;;;;;24.81;40.07;100166.28;5076122;28;20425;-67
2022/07/25 10:00:32;;;;;;;;;;;;;;;24.95;39.75;100169.16;5076084;28;20413;-67
2022/07/25 10:03:04;;;;;;;;;;;;;;;24.95;39.93;100162.88;5076022;28;19917;-67
2022/07/25 10:06:02;;;;;;;;;;;;;;;24.91;39.73;100157.16;5074759;28;19966;-67
2022/07/25 10:08:28;;;;;;;;;;;;;;;24.88;39.69;100164.00;5033190;28;19917;-67
2022/07/25 10:10:53;;;;;;;;;;;;;;;24.93;40.06;100155.75;5033450;28;19940;-67
2022/07/25 10:13:28;;;;;;;;;;;;;;;24.93;39.93;100157.69;5050505;28;20401;-67
2022/07/25 10:15:53;;;;;;;;;;;;;;;24.91;39.79;100162.63;5053137;28;19913;-67
2022/07/25 10:18:20;;;;;;;;;;;;;;;24.98;39.45;100157.63;5036687;28;20008;-67
2022/07/25 10:20:45;;;;;;;;;;;;;;;24.80;39.56;100151.00;5053180;28;20115;-68
2022/07/25 10:23:17;;;;;;;;;;;;;;;24.84;39.83;100151.25;5036363;28;19917;-68
2022/07/25 10:25:43;;;;;;;;;;;;;;;24.85;39.28;100145.47;5052699;28;20004;-68
2022/07/25 10:28:08;;;;;;;;;;;;;;;24.93;39.36;100144.03;5053100;28;20031;-68
2022/07/25 10:30:37;;;;;;;;;;;;;;;24.92;39.50;100145.94;5053259;28;20512;-69
2022/07/25 10:33:18;;;;;;;;;;;;;;;24.89;39.42;100145.72;5053424;28;19924;-72
2022/07/25 10:35:44;;;;;;;;;;;;;;;24.96;39.34;100143.44;5053242;28;20332;-68
2022/07/25 10:38:09;;;;;;;;;;;;;;;24.98;39.44;100135.78;5053158;28;19924;-68
2022/07/25 10:40:38;;;;;;;;;;;;;;;25.00;39.15;100138.22;5053012;28;20434;-68
2022/07/25 10:43:07;;;;;;;;;;;;;;;25.04;39.14;100136.53;5057205;28;20020;-68
2022/07/25 10:45:42;;;;;;;;;;;;;;;25.02;39.14;100136.00;5095610;28;19916;-68
2022/07/25 10:48:11;;;;;;;;;;;;;;;24.98;38.97;100134.97;5095671;28;19916;-67
2022/07/25 10:50:47;;;;;;;;;;;;;;;25.07;38.65;100135.94;5095232;28;19916;-67
2022/07/25 10:53:12;;;;;;;;;;;;;;;25.05;38.68;100136.22;5095072;28;19916;-67
2022/07/25 10:55:37;;;;;;;;;;;;;;;24.96;38.79;100137.16;5095439;28;19980;-67
2022/07/25 10:58:05;;;;;;;;;;;;;;;25.00;38.94;100139.03;5095530;28;20355;-68
2022/07/25 11:00:31;;;;;;;;;;;;;;;25.08;38.57;100134.84;5095730;28;19955;-68
2022/07/25 11:02:56;;;;;;;;;;;;;;;25.10;38.64;100129.91;5095363;28;19916;-68
2022/07/25 11:05:22;;;;;;;;;;;;;;;25.06;38.24;100117.91;5095391;28;20386;-67
2022/07/25 11:07:53;;;;;;;;;;;;;;;25.04;38.42;100114.66;5095327;28;19916;-67
2022/07/25 11:10:25;;;;;;;;;;;;;;;25.03;38.12;100115.78;5093840;28;19948;-67
2022/07/25 11:12:50;;;;;;;;;;;;;;;25.04;37.46;100115.47;5082276;28;19917;-67
2022/07/25 11:15:15;;;;;;;;;;;;;;;25.07;37.55;100106.69;5075414;28;19924;-67
2022/07/25 11:17:48;;;;;;;;;;;;;;;25.06;36.96;100110.53;5074290;28;19948;-67
2022/07/25 11:20:14;;;;;;;;;;;;;;;25.06;37.04;100102.34;5074058;28;19939;-67
2022/07/25 11:22:40;;;;;;;;;;;;;;;25.10;36.82;100108.03;5075477;28;19916;-67
2022/07/25 11:25:09;;;;;;;;;;;;;;;25.09;36.63;100095.44;5074081;28;20008;-67
2022/07/25 11:27:34;;;;;;;;;;;;;;;25.10;36.65;100105.28;5074354;28;19963;-67
2022/07/25 11:30:09;;;;;;;;;;;;;;;25.07;36.54;100106.69;5074321;28;19991;-68
2022/07/25 11:32:41;;;;;;;;;;;;;;;25.04;36.35;100104.56;5074025;28;19917;-68
2022/07/25 11:35:06;;;;;;;;;;;;;;;25.04;36.69;100111.91;5074345;28;19924;-68
2022/07/25 11:37:32;;;;;;;;;;;;;;;25.04;36.95;100114.66;5075087;28;19916;-68
2022/07/25 11:39:57;;;;;;;;;;;;;;;25.06;36.34;100112.44;5073918;28;20319;-68
2022/07/25 11:42:25;;;;;;;;;;;;;;;25.11;35.55;100106.91;5073894;28;19916;-68
2022/07/25 11:44:50;;;;;;;;;;;;;;;25.11;36.22;100112.38;5073948;28;19916;-67
2022/07/25 11:47:23;;;;;;;;;;;;;;;25.07;35.89;100112.16;5073926;28;19923;-67
2022/07/25 11:49:49;;;;;;;;;;;;;;;25.09;36.02;100103.66;5073669;28;20378;-67
2022/07/25 11:52:21;;;;;;;;;;;;;;;25.09;35.55;100120.06;5073672;28;19920;-67
2022/07/25 11:55:05;;;;;;;;;;;;;;;25.09;34.96;100109.13;5074035;28;19926;-67
2022/07/25 11:57:31;;;;;;;;;;;;;;;25.07;34.93;100111.34;5073674;28;20003;-67
2022/07/25 11:59:56;;;;;;;;;;;;;;;25.08;35.19;100110.25;5074609;28;19948;-67
2022/07/25 12:02:26;;;;;;;;;;;;;;;25.07;34.45;100112.16;5073626;28;20286;-67
2022/07/25 12:05:01;;;;;;;;;;;;;;;25.06;34.40;100115.16;5073796;28;20007;-67
2022/07/25 12:07:45;;;;;;;;;;;;;;;25.05;34.32;100108.88;5073832;28;19970;-67
2022/07/25 12:10:12;;;;;;;;;;;;;;;25.05;34.76;100114.38;5073503;28;20363;-67
2022/07/25 12:12:55;;;;;;;;;;;;;;;25.05;34.73;100108.09;5083572;28;19916;-67
2022/07/25 12:15:27;;;;;;;;;;;;;;;25.06;34.41;100109.69;5094836;28;20278;-67
2022/07/25 12:17:53;;;;;;;;;;;;;;;25.05;34.82;100102.63;5094079;28;19948;-67
2022/07/25 12:20:22;;;;;;;;;;;;;;;25.04;33.98;100110.00;5093670;28;20274;-67
2022/07/25 12:22:48;;;;;;;;;;;;;;;25.03;33.95;100104.84;5093824;28;19961;-68
2022/07/25 12:25:13;;;;;;;;;;;;;;;25.01;34.69;100101.56;5093563;28;19920;-68
2022/07/25 12:27:42;;;;;;;;;;;;;;;25.01;34.75;100102.41;5093571;28;19920;-68
2022/07/25 12:30:07;;;;;;;;;;;;;;;25.01;34.17;100096.09;5093419;28;19959;-68
2022/07/25 12:32:33;;;;;;;;;;;;;;;25.03;34.15;100096.63;5097183;28;19916;-68
2022/07/25 12:34:58;;;;;;;;;;;;;;;24.99;34.83;100088.22;5100502;28;19916;-68